createdAt,value
2018-09-21T00:00:32.838Z,17.90
2018-09-21T00:03:00.969Z,17.80
2018-09-21T00:05:29.280Z,17.80
2018-09-21T00:07:57.576Z,17.80
2018-09-21T00:10:25.732Z,17.80
2018-09-21T00:12:54.103Z,17.70
2018-09-21T00:15:22.250Z,17.70
2018-09-21T00:17:50.414Z,17.70
2018-09-21T00:20:19.498Z,17.60
2018-09-21T00:22:47.638Z,17.60
2018-09-21T00:25:15.817Z,17.50
2018-09-21T00:27:43.949Z,17.50
2018-09-21T00:30:12.383Z,17.50
2018-09-21T00:32:41.594Z,17.50
2018-09-21T00:35:09.774Z,17.60
2018-09-21T00:37:37.985Z,17.50
2018-09-21T00:40:06.133Z,17.60
2018-09-21T00:42:34.272Z,17.60
2018-09-21T00:45:02.371Z,17.60
2018-09-21T00:47:30.965Z,17.60
2018-09-21T00:49:59.257Z,17.50
2018-09-21T00:52:27.369Z,17.50
2018-09-21T00:54:55.493Z,17.40
2018-09-21T00:57:23.669Z,17.30
2018-09-21T00:59:51.812Z,17.30
2018-09-21T01:02:20.112Z,17.30
2018-09-21T01:04:48.239Z,17.30
2018-09-21T01:07:16.536Z,17.20
2018-09-21T01:09:44.914Z,17.20
2018-09-21T01:12:13.071Z,17.20
2018-09-21T01:14:41.259Z,17.10
2018-09-21T01:17:09.353Z,17.10
2018-09-21T01:19:37.452Z,17.00
2018-09-21T01:22:05.560Z,17.00
2018-09-21T01:24:33.769Z,17.00
2018-09-21T01:27:01.961Z,16.90
2018-09-21T01:29:30.227Z,16.90
2018-09-21T01:31:58.364Z,16.90
2018-09-21T01:34:26.522Z,16.90
2018-09-21T01:36:54.611Z,16.80
2018-09-21T01:39:22.768Z,16.80
2018-09-21T01:41:50.890Z,16.70
2018-09-21T01:44:19.386Z,16.60
2018-09-21T01:46:47.505Z,16.60
2018-09-21T01:49:15.662Z,16.60
2018-09-21T01:51:43.764Z,16.50
2018-09-21T01:54:12.364Z,16.50
2018-09-21T01:56:40.497Z,16.50
2018-09-21T01:59:08.745Z,16.50
2018-09-21T02:01:37.072Z,16.40
2018-09-21T02:04:05.164Z,16.40
2018-09-21T02:06:33.294Z,16.40
2018-09-21T02:09:01.438Z,16.40
2018-09-21T02:11:29.698Z,16.30
2018-09-21T02:13:58.079Z,16.30
2018-09-21T02:16:26.354Z,16.30
2018-09-21T02:18:54.556Z,16.30
2018-09-21T02:21:23.098Z,16.20
2018-09-21T02:23:51.447Z,16.30
2018-09-21T02:26:19.613Z,16.20
2018-09-21T02:28:48.273Z,16.20
2018-09-21T02:31:16.433Z,16.20
2018-09-21T02:33:44.575Z,16.20
2018-09-21T02:36:12.804Z,16.10
2018-09-21T02:38:40.951Z,16.10
2018-09-21T02:41:09.075Z,16.10
2018-09-21T02:43:37.175Z,16.10
2018-09-21T02:46:05.393Z,16.10
2018-09-21T02:48:33.645Z,16.10
2018-09-21T02:51:01.793Z,16.10
2018-09-21T02:53:30.369Z,16.10
2018-09-21T02:55:58.641Z,16.10
2018-09-21T02:58:26.781Z,16.30
2018-09-21T03:00:55.093Z,16.30
2018-09-21T03:03:23.116Z,16.30
2018-09-21T03:05:51.298Z,16.40
2018-09-21T03:08:19.409Z,16.30
2018-09-21T03:10:47.598Z,16.30
2018-09-21T03:13:16.034Z,16.30
2018-09-21T03:15:44.242Z,16.30
2018-09-21T03:18:12.398Z,16.30
2018-09-21T03:20:40.580Z,16.30
2018-09-21T03:23:08.743Z,16.30
2018-09-21T03:25:36.889Z,16.20
2018-09-21T03:28:04.984Z,16.20
2018-09-21T03:30:33.301Z,16.20
2018-09-21T03:33:01.583Z,16.20
2018-09-21T03:35:29.810Z,16.20
2018-09-21T03:37:58.165Z,16.20
2018-09-21T03:40:26.528Z,16.20
2018-09-21T03:42:54.659Z,16.20
2018-09-21T03:45:22.834Z,16.20
2018-09-21T03:47:50.943Z,16.10
2018-09-21T03:50:19.193Z,16.10
2018-09-21T03:52:47.369Z,16.00
2018-09-21T03:55:15.501Z,16.00
2018-09-21T03:57:43.607Z,16.00
2018-09-21T04:00:11.830Z,16.00
2018-09-21T04:02:39.916Z,15.90
2018-09-21T04:05:08.094Z,15.90
2018-09-21T04:07:36.185Z,15.90
2018-09-21T04:10:04.757Z,15.90
2018-09-21T04:12:32.887Z,15.80
2018-09-21T04:15:00.998Z,15.80
2018-09-21T04:17:29.111Z,15.80
2018-09-21T04:19:57.211Z,15.80
2018-09-21T04:22:25.364Z,15.80
2018-09-21T04:24:53.517Z,15.80
2018-09-21T04:27:21.668Z,15.80
2018-09-21T04:29:50.290Z,15.80
2018-09-21T04:32:18.440Z,15.80
2018-09-21T04:34:46.662Z,15.80
2018-09-21T04:37:14.817Z,15.90
2018-09-21T04:39:43.333Z,16.00
2018-09-21T04:42:12.495Z,16.10
2018-09-21T04:44:40.964Z,16.10
2018-09-21T04:47:09.134Z,16.20
2018-09-21T04:49:37.443Z,16.20
2018-09-21T04:52:05.734Z,16.20
2018-09-21T04:54:33.914Z,16.10
2018-09-21T04:57:02.116Z,16.10
2018-09-21T04:59:31.630Z,16.10
2018-09-21T05:01:59.872Z,16.00
2018-09-21T05:04:28.001Z,16.00
2018-09-21T05:06:56.113Z,16.00
2018-09-21T05:09:24.247Z,16.10
2018-09-21T05:11:52.393Z,16.40
2018-09-21T05:14:22.916Z,16.90
2018-09-21T05:16:51.048Z,17.00
2018-09-21T05:19:19.233Z,17.20
2018-09-21T05:21:47.387Z,17.20
2018-09-21T05:24:15.787Z,17.30
2018-09-21T05:26:43.957Z,17.60
2018-09-21T05:29:12.081Z,17.70
2018-09-21T05:31:40.387Z,17.90
2018-09-21T05:34:08.606Z,18.20
2018-09-21T05:36:36.748Z,18.40
2018-09-21T05:39:08.413Z,18.70
2018-09-21T05:41:36.566Z,18.80
2018-09-21T05:44:04.759Z,19.10
2018-09-21T05:46:33.017Z,19.40
2018-09-21T05:49:01.303Z,19.50
2018-09-21T05:51:33.885Z,19.70
2018-09-21T05:54:02.062Z,19.80
2018-09-21T05:56:30.639Z,19.90
2018-09-21T05:58:58.889Z,20.00
2018-09-21T06:01:27.089Z,20.10
2018-09-21T06:03:55.350Z,20.30
2018-09-21T06:06:23.624Z,20.40
2018-09-21T06:08:51.734Z,20.50
2018-09-21T06:11:19.934Z,20.70
2018-09-21T06:13:48.467Z,20.80
2018-09-21T06:16:16.526Z,21.00
2018-09-21T06:18:44.883Z,21.10
2018-09-21T06:21:13.091Z,21.20
2018-09-21T06:23:42.774Z,21.30
2018-09-21T06:26:10.991Z,21.50
2018-09-21T06:28:39.157Z,21.80
2018-09-21T06:31:07.365Z,22.10
2018-09-21T06:33:35.568Z,22.30
2018-09-21T06:36:03.708Z,22.70
2018-09-21T06:38:31.812Z,23.10
2018-09-21T06:40:59.957Z,23.70
2018-09-21T06:43:28.130Z,24.50
2018-09-21T06:45:56.299Z,25.00
2018-09-21T06:48:24.469Z,25.70
2018-09-21T06:50:52.531Z,26.30
2018-09-21T06:53:20.702Z,26.50
2018-09-21T06:55:48.873Z,26.60
2018-09-21T06:58:17.001Z,26.70
2018-09-21T07:00:45.145Z,26.30
2018-09-21T07:03:13.332Z,26.00
2018-09-21T07:05:41.511Z,26.30
2018-09-21T07:08:09.596Z,26.90
2018-09-21T07:10:37.754Z,27.00
2018-09-21T07:13:05.896Z,27.20
2018-09-21T07:15:33.991Z,27.00
2018-09-21T07:18:02.132Z,27.00
2018-09-21T07:20:30.297Z,27.00
2018-09-21T07:22:58.384Z,27.30
2018-09-21T07:25:26.544Z,27.30
2018-09-21T07:27:54.647Z,27.60
2018-09-21T07:30:22.736Z,27.80
2018-09-21T07:32:50.833Z,28.00
2018-09-21T07:35:18.997Z,27.70
2018-09-21T07:37:47.089Z,27.60
2018-09-21T07:40:15.330Z,27.00
2018-09-21T07:42:43.516Z,26.90
2018-09-21T07:45:11.625Z,26.80
2018-09-21T07:47:39.799Z,26.30
2018-09-21T07:50:07.913Z,26.00
2018-09-21T07:52:36.028Z,26.10
2018-09-21T07:55:04.096Z,26.10
2018-09-21T07:57:32.269Z,25.90
2018-09-21T08:00:00.324Z,25.80
2018-09-21T08:02:28.471Z,25.50
2018-09-21T08:04:56.648Z,25.40
2018-09-21T08:07:24.755Z,25.50
2018-09-21T08:09:52.923Z,25.80
2018-09-21T08:12:21.055Z,25.90
2018-09-21T08:14:49.170Z,26.00
2018-09-21T08:17:17.354Z,26.30
2018-09-21T08:19:45.470Z,26.70
2018-09-21T08:22:13.696Z,27.30
2018-09-21T08:24:41.821Z,27.90
2018-09-21T08:27:11.667Z,28.30
2018-09-21T08:29:39.801Z,28.90
2018-09-21T08:32:07.904Z,28.90
2018-09-21T08:34:36.000Z,28.70
2018-09-21T08:37:04.423Z,28.90
2018-09-21T08:39:32.496Z,29.00
2018-09-21T08:42:00.659Z,28.90
2018-09-21T08:44:28.760Z,28.50
2018-09-21T08:46:57.085Z,28.40
2018-09-21T08:49:25.192Z,29.20
2018-09-21T08:51:53.318Z,29.60
2018-09-21T08:54:21.449Z,29.90
2018-09-21T08:56:49.560Z,30.00
2018-09-21T08:59:17.678Z,30.40
2018-09-21T09:01:45.779Z,30.30
2018-09-21T09:04:13.907Z,30.30
2018-09-21T09:06:42.016Z,30.00
2018-09-21T09:09:10.721Z,29.70
2018-09-21T09:11:39.170Z,29.90
2018-09-21T09:14:07.414Z,30.60
2018-09-21T09:16:35.524Z,31.20
2018-09-21T09:19:03.668Z,32.00
2018-09-21T09:21:31.862Z,32.20
2018-09-21T09:23:59.982Z,32.30
2018-09-21T09:26:28.142Z,32.80
2018-09-21T09:28:56.596Z,32.50
2018-09-21T09:31:24.664Z,32.30
2018-09-21T09:33:52.828Z,32.50
2018-09-21T09:36:21.029Z,32.40
2018-09-21T09:38:49.129Z,31.80
2018-09-21T09:41:17.329Z,32.10
2018-09-21T09:43:45.481Z,32.10
2018-09-21T09:46:13.744Z,32.30
2018-09-21T09:48:41.895Z,32.10
2018-09-21T09:51:09.996Z,32.10
2018-09-21T09:53:38.105Z,31.50
2018-09-21T09:56:06.289Z,31.60
2018-09-21T09:58:34.531Z,31.80
2018-09-21T10:01:02.763Z,31.80
2018-09-21T10:03:30.959Z,31.90
2018-09-21T10:05:59.104Z,32.00
2018-09-21T10:08:27.317Z,32.50
2018-09-21T10:10:55.514Z,33.10
2018-09-21T10:13:23.658Z,32.80
2018-09-21T10:15:51.824Z,32.50
2018-09-21T10:18:20.022Z,32.20
2018-09-21T10:20:48.279Z,31.80
2018-09-21T10:23:16.401Z,31.90
2018-09-21T10:25:44.603Z,31.70
2018-09-21T10:28:12.906Z,31.70
2018-09-21T10:30:41.018Z,31.70
2018-09-21T10:33:09.247Z,31.40
2018-09-21T10:35:37.521Z,31.10
2018-09-21T10:38:05.587Z,30.90
2018-09-21T10:40:33.761Z,31.00
2018-09-21T10:43:01.902Z,30.70
2018-09-21T10:45:29.959Z,30.80
2018-09-21T10:47:58.084Z,30.80
2018-09-21T10:50:26.321Z,30.60
2018-09-21T10:52:54.393Z,30.60
2018-09-21T10:55:22.532Z,30.40
2018-09-21T10:57:50.636Z,30.30
2018-09-21T11:00:18.778Z,29.80
2018-09-21T11:02:46.897Z,29.70
2018-09-21T11:05:15.019Z,29.70
2018-09-21T11:07:43.164Z,29.70
2018-09-21T11:10:11.301Z,29.70
2018-09-21T11:12:39.435Z,29.60
2018-09-21T11:15:07.723Z,29.30
2018-09-21T11:17:35.873Z,29.10
2018-09-21T11:20:03.975Z,29.20
2018-09-21T11:22:32.589Z,29.20
2018-09-21T11:25:00.701Z,29.10
2018-09-21T11:27:28.857Z,29.00
2018-09-21T11:29:56.952Z,29.10
2018-09-21T11:32:25.119Z,29.20
2018-09-21T11:34:53.227Z,29.10
2018-09-21T11:37:21.315Z,28.90
2018-09-21T11:39:49.431Z,28.80
2018-09-21T11:42:17.634Z,28.70
2018-09-21T11:44:45.732Z,28.90
2018-09-21T11:47:13.930Z,29.20
2018-09-21T11:49:42.091Z,29.10
2018-09-21T11:52:10.303Z,29.10
2018-09-21T11:54:38.438Z,29.10
2018-09-21T11:57:06.607Z,29.20
2018-09-21T11:59:34.781Z,29.00
2018-09-21T12:02:02.935Z,29.00
2018-09-21T12:04:31.093Z,29.10
2018-09-21T12:06:59.184Z,29.20
2018-09-21T12:09:27.334Z,29.40
2018-09-21T12:11:55.469Z,29.60
2018-09-21T12:14:23.584Z,29.60
2018-09-21T12:16:51.705Z,29.60
2018-09-21T12:19:19.853Z,29.40
2018-09-21T12:21:47.960Z,29.20
2018-09-21T12:24:16.090Z,29.00
2018-09-21T12:26:44.282Z,29.00
2018-09-21T12:29:12.374Z,29.00
2018-09-21T12:31:40.518Z,29.20
2018-09-21T12:34:08.616Z,29.20
2018-09-21T12:36:36.785Z,29.10
2018-09-21T12:39:08.051Z,29.10
2018-09-21T12:41:36.349Z,29.00
2018-09-21T12:44:04.516Z,29.00
2018-09-21T12:46:32.665Z,29.10
2018-09-21T12:49:02.638Z,29.40
2018-09-21T12:51:31.059Z,29.70
2018-09-21T12:53:59.221Z,30.00
2018-09-21T12:56:27.437Z,30.30
2018-09-21T12:58:55.639Z,30.60
2018-09-21T13:01:24.213Z,30.80
2018-09-21T13:03:52.367Z,30.80
2018-09-21T13:06:20.542Z,30.70
2018-09-21T13:08:48.739Z,30.50
2018-09-21T13:11:17.218Z,30.50
2018-09-21T13:13:45.402Z,30.40
2018-09-21T13:16:13.688Z,30.50
2018-09-21T13:18:42.876Z,30.40
2018-09-21T13:21:11.039Z,30.80
2018-09-21T13:23:39.212Z,31.80
2018-09-21T13:26:07.351Z,32.30
2018-09-21T13:28:35.767Z,33.20
2018-09-21T13:31:03.893Z,33.80
2018-09-21T13:33:31.979Z,34.00
2018-09-21T13:36:00.121Z,34.30
2018-09-21T13:38:28.328Z,34.60
2018-09-21T13:40:56.403Z,33.10
2018-09-21T13:43:24.558Z,32.40
2018-09-21T13:45:52.706Z,32.10
2018-09-21T13:48:20.803Z,31.60
2018-09-21T13:50:49.005Z,31.30
2018-09-21T13:53:17.226Z,30.90
2018-09-21T13:55:45.881Z,30.40
2018-09-21T13:58:14.024Z,30.30
2018-09-21T14:00:42.202Z,30.40
2018-09-21T14:03:10.363Z,30.80
2018-09-21T14:05:38.555Z,31.30
2018-09-21T14:08:06.652Z,31.00
2018-09-21T14:10:34.744Z,30.50
2018-09-21T14:13:02.886Z,30.20
2018-09-21T14:15:31.040Z,30.10
2018-09-21T14:17:59.190Z,29.80
2018-09-21T14:20:27.688Z,29.60
2018-09-21T14:22:55.873Z,29.30
2018-09-21T14:25:24.017Z,29.10
2018-09-21T14:27:52.217Z,29.20
2018-09-21T14:30:20.333Z,29.10
2018-09-21T14:32:48.465Z,28.90
2018-09-21T14:35:16.583Z,28.90
2018-09-21T14:37:44.683Z,28.80
2018-09-21T14:40:12.764Z,28.80
2018-09-21T14:42:41.214Z,28.90
2018-09-21T14:45:09.476Z,28.80
2018-09-21T14:47:37.717Z,28.70
2018-09-21T14:50:05.982Z,28.70
2018-09-21T14:52:34.182Z,28.70
2018-09-21T14:55:02.412Z,28.60
2018-09-21T14:57:30.592Z,28.50
2018-09-21T14:59:58.751Z,28.50
2018-09-21T15:02:26.885Z,28.50
2018-09-21T15:04:55.351Z,28.40
2018-09-21T15:07:23.536Z,28.40
2018-09-21T15:09:51.749Z,28.30
2018-09-21T15:12:19.835Z,28.30
2018-09-21T15:14:47.935Z,28.20
2018-09-21T15:17:16.186Z,28.20
2018-09-21T15:19:44.390Z,28.10
2018-09-21T15:22:12.902Z,28.10
2018-09-21T15:24:41.083Z,28.00
2018-09-21T15:27:09.319Z,27.90
2018-09-21T15:29:37.453Z,27.90
2018-09-21T15:32:05.821Z,27.90
2018-09-21T15:34:34.088Z,27.80
2018-09-21T15:37:02.212Z,27.70
2018-09-21T15:39:30.312Z,27.70
2018-09-21T15:41:58.456Z,27.60
2018-09-21T15:44:26.844Z,27.60
2018-09-21T15:46:54.994Z,27.50
2018-09-21T15:49:23.605Z,26.90
2018-09-21T15:51:51.708Z,25.70
2018-09-21T15:54:19.844Z,24.60
2018-09-21T15:56:48.005Z,24.10
2018-09-21T15:59:16.175Z,23.50
2018-09-21T16:01:44.327Z,23.00
2018-09-21T16:04:12.598Z,22.90
2018-09-21T16:06:40.713Z,22.90
2018-09-21T16:09:09.343Z,22.80
2018-09-21T16:11:38.375Z,22.60
2018-09-21T16:14:07.033Z,22.40
2018-09-21T16:16:35.426Z,22.20
2018-09-21T16:19:03.754Z,22.10
2018-09-21T16:21:31.881Z,22.00
2018-09-21T16:24:00.058Z,21.90
2018-09-21T16:26:28.192Z,22.00
2018-09-21T16:28:56.315Z,21.90
2018-09-21T16:31:24.483Z,21.90
2018-09-21T16:33:53.056Z,21.80
2018-09-21T16:36:21.156Z,21.80
2018-09-21T16:38:49.269Z,21.80
2018-09-21T16:41:17.373Z,21.50
2018-09-21T16:43:45.602Z,21.20
2018-09-21T16:46:13.775Z,21.10
2018-09-21T16:48:42.028Z,20.90
2018-09-21T16:51:10.161Z,20.80
2018-09-21T16:53:38.288Z,20.50
2018-09-21T16:56:06.637Z,20.30
2018-09-21T16:58:34.810Z,20.10
2018-09-21T17:01:03.199Z,19.80
2018-09-21T17:03:31.592Z,19.40
2018-09-21T17:06:00.441Z,19.20
2018-09-21T17:08:28.735Z,19.00
2018-09-21T17:10:59.688Z,18.80
2018-09-21T17:13:27.904Z,18.60
2018-09-21T17:15:55.997Z,18.50
2018-09-21T17:18:24.138Z,18.40
2018-09-21T17:20:52.317Z,18.40
2018-09-21T17:23:21.264Z,18.20
2018-09-21T17:25:49.401Z,18.10
2018-09-21T17:28:17.753Z,17.90
2018-09-21T17:30:45.886Z,18.00
2018-09-21T17:33:14.081Z,17.90
2018-09-21T17:35:42.347Z,17.70
2018-09-21T17:38:10.961Z,17.50
2018-09-21T17:40:39.182Z,17.30
2018-09-21T17:43:07.312Z,17.20
2018-09-21T17:45:35.476Z,17.10
2018-09-21T17:48:03.954Z,17.10
2018-09-21T17:50:32.084Z,17.10
2018-09-21T17:53:00.206Z,17.00
2018-09-21T17:55:28.358Z,17.00
2018-09-21T17:57:56.523Z,17.10
2018-09-21T18:00:25.029Z,17.10
2018-09-21T18:02:53.215Z,16.90
2018-09-21T18:05:21.341Z,16.80
2018-09-21T18:07:49.481Z,16.70
2018-09-21T18:10:17.894Z,16.70
2018-09-21T18:12:46.106Z,16.70
2018-09-21T18:15:14.421Z,16.60
2018-09-21T18:17:42.549Z,16.60
2018-09-21T18:20:10.684Z,16.50
2018-09-21T18:22:38.771Z,16.50
2018-09-21T18:25:07.197Z,16.40
2018-09-21T18:27:35.309Z,16.40
2018-09-21T18:30:03.441Z,16.40
2018-09-21T18:32:31.512Z,16.30
2018-09-21T18:34:59.705Z,16.30
2018-09-21T18:37:27.865Z,16.20
2018-09-21T18:39:56.138Z,16.20
2018-09-21T18:42:24.260Z,16.20
2018-09-21T18:44:52.494Z,16.10
2018-09-21T18:47:20.561Z,16.00
2018-09-21T18:49:48.675Z,15.90
2018-09-21T18:52:16.965Z,15.70
2018-09-21T18:54:45.148Z,15.60
2018-09-21T18:57:13.345Z,15.40
2018-09-21T18:59:41.479Z,15.30
2018-09-21T19:02:09.625Z,15.20
2018-09-21T19:04:37.732Z,15.20
2018-09-21T19:07:10.223Z,15.10
2018-09-21T19:09:38.546Z,15.10
2018-09-21T19:12:06.855Z,15.00
2018-09-21T19:14:34.992Z,15.10
2018-09-21T19:17:03.083Z,15.00
2018-09-21T19:19:31.342Z,15.00
2018-09-21T19:21:59.544Z,15.00
2018-09-21T19:24:27.963Z,15.10
2018-09-21T19:26:56.174Z,15.00
2018-09-21T19:29:24.317Z,14.80
2018-09-21T19:31:52.474Z,14.90
2018-09-21T19:34:20.644Z,15.00
2018-09-21T19:36:48.816Z,15.00
2018-09-21T19:39:17.346Z,14.90
2018-09-21T19:41:45.470Z,15.00
2018-09-21T19:44:13.673Z,15.00
2018-09-21T19:46:41.960Z,15.00
2018-09-21T19:49:10.102Z,14.90
2018-09-21T19:51:38.233Z,14.90
2018-09-21T19:54:06.515Z,14.90
2018-09-21T19:56:34.673Z,14.90
2018-09-21T19:59:02.812Z,14.80
2018-09-21T20:01:30.969Z,14.80
2018-09-21T20:03:59.489Z,14.80
2018-09-21T20:06:28.182Z,14.80
2018-09-21T20:08:56.423Z,14.70
2018-09-21T20:11:26.054Z,14.80
2018-09-21T20:13:54.319Z,14.70
2018-09-21T20:16:22.737Z,14.60
2018-09-21T20:18:51.884Z,14.60
2018-09-21T20:21:20.103Z,14.60
2018-09-21T20:23:48.244Z,14.60
2018-09-21T20:26:16.372Z,14.60
2018-09-21T20:28:44.641Z,14.40
2018-09-21T20:31:18.398Z,14.40
2018-09-21T20:33:46.517Z,14.40
2018-09-21T20:36:15.857Z,14.40
2018-09-21T20:38:43.957Z,14.50
2018-09-21T20:41:12.277Z,14.40
2018-09-21T20:43:41.357Z,14.40
2018-09-21T20:46:09.633Z,14.50
2018-09-21T20:48:38.010Z,14.50
2018-09-21T20:51:06.113Z,14.50
2018-09-21T20:53:34.239Z,14.50
2018-09-21T20:56:02.473Z,14.50
2018-09-21T20:58:30.729Z,14.40
2018-09-21T21:00:58.881Z,14.40
2018-09-21T21:03:27.013Z,14.40
2018-09-21T21:05:55.356Z,14.40
2018-09-21T21:08:23.496Z,14.40
2018-09-21T21:10:51.594Z,14.40
2018-09-21T21:13:19.992Z,14.40
2018-09-21T21:15:48.028Z,14.40
2018-09-21T21:18:16.151Z,14.40
2018-09-21T21:20:44.358Z,14.30
2018-09-21T21:23:12.545Z,14.30
2018-09-21T21:25:40.722Z,14.30
2018-09-21T21:28:09.231Z,14.40
2018-09-21T21:30:37.404Z,14.30
2018-09-21T21:33:05.602Z,14.30
2018-09-21T21:35:34.089Z,14.30
2018-09-21T21:38:02.400Z,14.40
2018-09-21T21:40:30.514Z,14.40
2018-09-21T21:42:58.652Z,14.40
2018-09-21T21:45:26.787Z,14.40
2018-09-21T21:47:54.920Z,14.40
2018-09-21T21:50:23.069Z,14.40
2018-09-21T21:52:51.372Z,14.40
2018-09-21T21:55:19.538Z,14.40
2018-09-21T21:57:47.726Z,14.40
2018-09-21T22:00:16.059Z,14.40
2018-09-21T22:02:44.181Z,14.40
2018-09-21T22:05:12.664Z,14.40
2018-09-21T22:07:41.021Z,14.40
2018-09-21T22:10:09.333Z,14.40
2018-09-21T22:12:43.049Z,14.40
2018-09-21T22:15:17.946Z,14.40
2018-09-21T22:17:46.580Z,14.40
2018-09-21T22:20:14.923Z,14.40
2018-09-21T22:22:43.128Z,14.30
2018-09-21T22:25:12.090Z,14.30
2018-09-21T22:27:41.266Z,14.30
2018-09-21T22:30:09.736Z,14.20
2018-09-21T22:32:38.596Z,14.20
2018-09-21T22:35:06.868Z,14.20
2018-09-21T22:37:35.469Z,14.20
2018-09-21T22:40:03.699Z,14.30
2018-09-21T22:42:32.396Z,14.20
2018-09-21T22:45:00.548Z,14.20
2018-09-21T22:47:28.740Z,14.20
2018-09-21T22:49:56.889Z,14.20
2018-09-21T22:52:25.030Z,14.20
2018-09-21T22:54:53.338Z,14.20
2018-09-21T22:57:21.719Z,14.20
2018-09-21T22:59:49.860Z,14.20
2018-09-21T23:02:18.062Z,14.20
2018-09-21T23:04:46.254Z,14.10
2018-09-21T23:07:14.540Z,14.10
2018-09-21T23:09:42.696Z,14.10
2018-09-21T23:12:10.897Z,14.00
2018-09-21T23:14:39.069Z,14.00
2018-09-21T23:17:07.260Z,13.90
2018-09-21T23:19:35.577Z,13.90
2018-09-21T23:22:03.875Z,13.90
2018-09-21T23:24:32.061Z,13.90
2018-09-21T23:27:00.184Z,13.90
2018-09-21T23:29:28.303Z,13.90
2018-09-21T23:31:56.457Z,13.80
2018-09-21T23:34:24.589Z,13.70
2018-09-21T23:36:52.708Z,13.80
2018-09-21T23:39:20.871Z,13.70
2018-09-21T23:41:49.014Z,13.60
2018-09-21T23:44:17.167Z,13.50
2018-09-21T23:46:45.304Z,13.50
2018-09-21T23:49:13.404Z,13.60
2018-09-21T23:51:41.538Z,13.50
2018-09-21T23:54:09.688Z,13.50
2018-09-21T23:56:38.161Z,13.50
2018-09-21T23:59:06.337Z,13.40
